KMCF/MCF METAR and TAF weather

Enter ICAO airport designator
Station Type Date Time Source
KMCF METAR 2022/08/16 18:56 UTC NOAA

KMCF 161856Z AUTO 21011KT 10SM FEW095 FEW120 SCT150 SCT180 BKN210 32/23 A2988 RMK AO2 SLP121 T03210233 RVRNO FZRANO $


Station Type Date Time Source
KMCF Decoded METAR 2022/08/16 18:56 UTC NOAA

Macdill Air Force Base, Fl., FL, United States (KMCF) 27-51N 082-30W 4M
Aug 16, 2022 - 02:56 PM EDT / 2022.08.16 1856 UTC
Wind: from the SSW (210 degrees) at 13 MPH (11 KT):0
Visibility: 10 mile(s):0
Sky conditions: mostly cloudy
Temperature: 89.8 F (32.1 C)
Heat index: 98.6 F (37.0 C):1
Dew Point: 73.9 F (23.3 C)
Relative Humidity: 59%
Pressure (altimeter): 29.88 in. Hg (1011 hPa)
ob: KMCF 161856Z AUTO 21011KT 10SM FEW095 FEW120 SCT150 SCT180 BKN210 32/23 A2988 RMK AO2 SLP121 T03210233 RVRNO FZRANO
cycle: 19

Station Type Date Time Source
KMCF TAF 2022/08/16 17:54 UTC NOAA

TAF KMCF 161700Z 1617/1723 VRB06KT 9999 FEW030 SCT060 SCT170 QNH2987INS
TEMPO 1619/1623 32009KT 8000 VCSH SCT020 SCT050 BKN180
BECMG 1700/1701 26009KT 9999 SCT030 QNH2989INS
BECMG 1716/1717 27009KT 8000 -SHRA VCTS FEW015 SCT030CB QNH2989INS
TEMPO 1718/1723 VRB12G18KT 6000 -TSRA BKN020CB OVC040 TX32/1619Z TN25/1710Z

Example: see airport list